Flight Track Log - Related Links

Times and Time Zones

All times are in EDT time to prevent confusion due to time zone crossing. See the CSC8711 flight status page for this flight to view local times or setup timezone preferences in your user account.

Time Position Orientation Groundspeed Altitude Reporting Facility
EDT Latitude Longitude Course Direction KTS MPH feet Rate Location/Type
Sat 02:28:00 AM 30.6063 104.6713 87° East  Level Estimated
Sat 02:29:00 AM 30.6105 104.7920 88° East  Level Estimated
Sat 02:30:00 AM 30.6146 104.9128 88° East  Level Estimated
Sat 02:31:00 AM 30.6186 105.0335 88° East  Level Estimated
Sat 02:32:00 AM 30.6225 105.1543 88° East  Level Estimated
Sat 02:33:00 AM 30.6263 105.2751 88° East  Level Estimated
Sat 02:34:00 AM 30.6300 105.3959 88° East  Level Estimated
Sat 02:35:00 AM 30.6335 105.5167 88° East  Level Estimated
Sat 02:36:00 AM 30.6370 105.6375 88° East  Level Estimated
Sat 02:37:00 AM 30.6403 105.7583 88° East  Level Estimated
Sat 02:38:00 AM 30.6436 105.8791 88° East  Level Estimated
Sat 02:39:00 AM 30.6467 105.9999 88° East  Level Estimated
Sat 02:40:00 AM 30.6497 106.1208 88° East  Level Estimated
Sat 02:41:00 AM 30.6526 106.2416 88° East  Level Estimated
Sat 02:42:00 AM 30.6553 106.3625 88° East  Level Estimated
Sat 02:43:00 AM 30.6580 106.4833 88° East  Level Estimated
Sat 02:44:00 AM 30.6606 106.6042 89° East  Level Estimated
Sat 02:45:00 AM 30.6630 106.7251 89° East  Level Estimated
Sat 02:46:00 AM 30.6653 106.8459 89° East  Level Estimated
Sat 02:47:00 AM 30.6676 106.9668 89° East  Level Estimated
Sat 02:48:00 AM 30.6697 107.0877 89° East  Level Estimated
Sat 02:49:00 AM 30.6717 107.2086 89° East  Level Estimated
Sat 02:50:00 AM 30.6735 107.3295 89° East  Level Estimated
Sat 02:51:00 AM 30.6753 107.4504 89° East  Level Estimated
Sat 02:52:00 AM 30.6770 107.5713 89° East  Level Estimated
Sat 02:53:00 AM 30.6785 107.6922 89° East  Level Estimated
Sat 02:54:00 AM 30.6800 107.8131 89° East  Level Estimated
Sat 02:55:00 AM 30.6813 107.9341 89° East  Level Estimated
Sat 02:56:00 AM 30.6825 108.0550 89° East  Level Estimated
Sat 02:57:00 AM 30.6836 108.1759 89° East  Level Estimated
Sat 02:58:00 AM 30.6846 108.2969 89° East  Level Estimated
Sat 02:59:00 AM 30.6855 108.4178 89° East  Level Estimated
Sat 03:00:00 AM 30.6863 108.5387 90° East  Level Estimated
Sat 03:01:00 AM 30.6869 108.6597 90° East  Level Estimated
Sat 03:02:00 AM 30.6874 108.7806 90° East  Level Estimated
Sat 03:03:00 AM 30.6879 108.9015 90° East  Level Estimated
Sat 03:04:00 AM 30.6882 109.0225 90° East  Level Estimated
Sat 03:05:00 AM 30.6884 109.1434 90° East  Level Estimated
Sat 03:06:00 AM 30.6885 109.2643 90° East  Level Estimated
Sat 03:07:00 AM 30.6885 109.3853 90° East  Level Estimated
Sat 03:08:00 AM 30.6883 109.5062 90° East  Level Estimated
Sat 03:09:00 AM 30.6881 109.6272 90° East  Level Estimated
Sat 03:10:00 AM 30.6877 109.7481 90° East  Level Estimated
Sat 03:11:00 AM 30.6873 109.8690 90° East  Level Estimated
Sat 03:12:00 AM 30.6867 109.9900 90° East  Level Estimated
Sat 03:13:00 AM 30.6860 110.1109 90° East  Level Estimated
Sat 03:14:00 AM 30.6852 110.2318 90° East  Level Estimated
Sat 03:15:00 AM 30.6843 110.3528 90° East  Level Estimated
Sat 03:16:00 AM 30.6833 110.4737 91° East  Level Estimated
Sat 03:17:00 AM 30.6821 110.5946 91° East  Level Estimated
Sat 03:18:00 AM 30.6809 110.7155 91° East  Level Estimated
Sat 03:19:00 AM 30.6795 110.8364 91° East  Level Estimated
Sat 03:20:00 AM 30.6780 110.9574 91° East  Level Estimated
Sat 03:21:00 AM 30.6764 111.0783 91° East  Level Estimated
Sat 03:22:00 AM 30.6747 111.1992 91° East  Level Estimated
Sat 03:23:00 AM 30.6729 111.3201 91° East  Level Estimated
Sat 03:24:00 AM 30.6710 111.4410 91° East  Level Estimated
Sat 03:25:00 AM 30.6710 111.4410 91° East  Level Estimated
Sat 03:26:00 AM 30.6710 111.4410 North  Level Estimated
Sat 03:27:00 AM 30.6710 111.4410 North  Level Estimated
Sat 03:28:00 AM 30.6710 111.4410 North  Level Estimated
Sat 03:29:00 AM 30.6710 111.4410 North  Level Estimated
Sat 03:30:00 AM 30.6710 111.4410 North  Level Estimated
Sat 03:31:00 AM 30.6710 111.4410 North  Level Estimated
Sat 03:32:00 AM 30.6710 111.4410 North  Level Estimated
Sat 03:33:00 AM 30.6710 111.4410 North  Level Estimated
Sat 03:34:00 AM 30.6710 111.4410 North  Level Estimated

Login

Don't have an account? Register now (free) for customized features, flight alerts, and more!